createdAt,value
2023-02-03T00:00:59.473Z,9.90
2023-02-03T00:03:26.176Z,10.00
2023-02-03T00:05:53.119Z,10.00
2023-02-03T00:08:20.257Z,10.10
2023-02-03T00:10:47.159Z,10.10
2023-02-03T00:13:14.667Z,10.10
2023-02-03T00:15:41.303Z,10.10
2023-02-03T00:18:07.899Z,10.10
2023-02-03T00:20:34.487Z,10.10
2023-02-03T00:23:05.888Z,10.10
2023-02-03T00:25:32.555Z,10.20
2023-02-03T00:27:59.245Z,10.00
2023-02-03T00:30:26.367Z,10.10
2023-02-03T00:32:53.292Z,10.10
2023-02-03T00:35:19.882Z,10.10
2023-02-03T00:37:54.273Z,10.10
2023-02-03T00:40:22.094Z,10.20
2023-02-03T00:42:48.857Z,10.20
2023-02-03T00:45:15.675Z,10.10
2023-02-03T00:47:42.388Z,10.20
2023-02-03T00:50:10.484Z,10.20
2023-02-03T00:52:37.165Z,10.20
2023-02-03T00:55:05.040Z,10.20
2023-02-03T00:57:31.881Z,10.20
2023-02-03T00:59:58.596Z,10.20
2023-02-03T01:02:25.565Z,10.20
2023-02-03T01:04:52.204Z,10.20
2023-02-03T01:07:18.925Z,10.20
2023-02-03T01:09:45.570Z,10.30
2023-02-03T01:12:12.180Z,10.20
2023-02-03T01:14:38.770Z,10.20
2023-02-03T01:17:05.458Z,10.20
2023-02-03T01:19:32.118Z,10.20
2023-02-03T01:21:58.691Z,10.10
2023-02-03T01:24:25.273Z,10.10
2023-02-03T01:26:51.877Z,10.10
2023-02-03T01:29:18.457Z,10.10
2023-02-03T01:31:45.162Z,10.10
2023-02-03T01:34:13.399Z,10.00
2023-02-03T01:36:40.271Z,10.10
2023-02-03T01:39:06.938Z,10.20
2023-02-03T01:41:36.581Z,10.20
2023-02-03T01:44:41.714Z,10.10
2023-02-03T01:47:32.876Z,10.10
2023-02-03T01:49:59.438Z,10.10
2023-02-03T01:52:27.619Z,10.10
2023-02-03T01:54:56.814Z,10.10
2023-02-03T01:57:33.569Z,10.10
2023-02-03T02:00:01.151Z,10.10
2023-02-03T02:02:28.111Z,10.10
2023-02-03T02:05:06.713Z,10.00
2023-02-03T02:07:35.763Z,10.10
2023-02-03T02:10:03.034Z,10.10
2023-02-03T02:12:29.673Z,10.10
2023-02-03T02:14:57.126Z,10.10
2023-02-03T02:17:52.495Z,10.10
2023-02-03T02:20:50.842Z,10.00
2023-02-03T02:23:35.081Z,10.00
2023-02-03T02:26:33.345Z,10.10
2023-02-03T02:29:41.706Z,10.10
2023-02-03T02:32:27.645Z,10.10
2023-02-03T02:35:18.419Z,10.10
2023-02-03T02:37:54.569Z,10.10
2023-02-03T02:40:37.776Z,10.10
2023-02-03T02:43:34.788Z,10.20
2023-02-03T02:46:11.830Z,10.20
2023-02-03T02:48:41.136Z,10.20
2023-02-03T02:51:12.189Z,10.20
2023-02-03T02:53:45.545Z,10.20
2023-02-03T02:56:15.594Z,10.20
2023-02-03T02:58:47.171Z,10.20
2023-02-03T03:01:13.871Z,10.30
2023-02-03T03:03:42.834Z,10.30
2023-02-03T03:06:24.865Z,10.40
2023-02-03T03:09:00.811Z,10.30
2023-02-03T03:11:31.707Z,10.40
2023-02-03T03:13:58.973Z,10.40
2023-02-03T03:16:29.743Z,10.40
2023-02-03T03:18:58.955Z,10.40
2023-02-03T03:21:38.378Z,10.50
2023-02-03T03:24:10.294Z,10.50
2023-02-03T03:26:49.759Z,10.50
2023-02-03T03:29:31.115Z,10.50
2023-02-03T03:31:58.368Z,10.50
2023-02-03T03:34:25.107Z,10.40
2023-02-03T03:36:58.785Z,10.40
2023-02-03T03:39:47.494Z,10.50
2023-02-03T03:42:14.029Z,10.50
2023-02-03T03:44:50.376Z,10.60
2023-02-03T03:47:32.552Z,10.60
2023-02-03T03:50:02.901Z,10.60
2023-02-03T03:52:33.016Z,10.60
2023-02-03T03:55:01.888Z,10.60
2023-02-03T03:57:46.508Z,10.50
2023-02-03T04:00:17.759Z,10.60
2023-02-03T04:02:51.423Z,10.60
2023-02-03T04:05:19.661Z,10.60
2023-02-03T04:07:47.486Z,10.60
2023-02-03T04:10:32.387Z,10.70
2023-02-03T04:12:59.124Z,10.60
2023-02-03T04:15:25.906Z,10.60
2023-02-03T04:17:53.001Z,10.60
2023-02-03T04:20:19.652Z,10.70
2023-02-03T04:22:46.427Z,10.60
2023-02-03T04:25:14.061Z,10.70
2023-02-03T04:27:40.753Z,10.70
2023-02-03T04:30:08.378Z,10.60
2023-02-03T04:32:35.578Z,10.60
2023-02-03T04:35:04.020Z,10.70
2023-02-03T04:37:30.698Z,10.70
2023-02-03T04:39:57.333Z,10.70
2023-02-03T04:42:24.938Z,10.70
2023-02-03T04:44:51.770Z,10.70
2023-02-03T04:47:19.194Z,10.70
2023-02-03T04:49:46.030Z,10.70
2023-02-03T04:52:13.181Z,10.70
2023-02-03T04:54:39.836Z,10.70
2023-02-03T04:57:06.930Z,10.70
2023-02-03T04:59:33.519Z,10.70
2023-02-03T05:02:03.261Z,10.70
2023-02-03T05:04:30.166Z,10.70
2023-02-03T05:06:57.482Z,10.70
2023-02-03T05:09:24.945Z,10.70
2023-02-03T05:11:51.684Z,10.60
2023-02-03T05:14:18.347Z,10.60
2023-02-03T05:16:46.236Z,10.60
2023-02-03T05:19:13.669Z,10.60
2023-02-03T05:21:40.349Z,10.60
2023-02-03T05:24:07.825Z,10.60
2023-02-03T05:26:35.903Z,10.60
2023-02-03T05:29:03.581Z,10.70
2023-02-03T05:31:30.271Z,10.60
2023-02-03T05:33:56.889Z,10.50
2023-02-03T05:36:23.477Z,10.50
2023-02-03T05:38:50.076Z,10.60
2023-02-03T05:41:35.421Z,10.60
2023-02-03T05:44:02.095Z,10.50
2023-02-03T05:46:28.746Z,10.50
2023-02-03T05:48:55.381Z,10.50
2023-02-03T05:51:22.023Z,10.60
2023-02-03T05:53:48.631Z,10.60
2023-02-03T05:56:15.707Z,10.60
2023-02-03T05:58:42.315Z,10.60
2023-02-03T06:01:08.921Z,10.60
2023-02-03T06:03:35.648Z,10.50
2023-02-03T06:06:02.345Z,10.50
2023-02-03T06:08:28.963Z,10.50
2023-02-03T06:11:02.123Z,10.60
2023-02-03T06:13:28.720Z,10.60
2023-02-03T06:15:56.180Z,10.60
2023-02-03T06:18:23.225Z,10.60
2023-02-03T06:20:50.785Z,10.60
2023-02-03T06:23:18.897Z,10.60
2023-02-03T06:25:48.577Z,10.60
2023-02-03T06:28:15.571Z,10.60
2023-02-03T06:30:42.842Z,10.60
2023-02-03T06:33:09.513Z,10.50
2023-02-03T06:35:36.646Z,10.50
2023-02-03T06:38:03.260Z,10.50
2023-02-03T06:40:30.430Z,10.50
2023-02-03T06:42:57.324Z,10.50
2023-02-03T06:45:24.849Z,10.60
2023-02-03T06:47:51.477Z,10.50
2023-02-03T06:50:18.414Z,10.50
2023-02-03T06:52:45.064Z,10.60
2023-02-03T06:55:12.182Z,10.60
2023-02-03T06:57:48.671Z,10.50
2023-02-03T07:00:18.963Z,10.50
2023-02-03T07:02:46.374Z,10.50
2023-02-03T07:05:13.179Z,10.50
2023-02-03T07:07:40.026Z,10.50
2023-02-03T07:10:07.582Z,10.60
2023-02-03T07:12:36.408Z,10.60
2023-02-03T07:15:04.838Z,10.60
2023-02-03T07:17:31.691Z,10.50
2023-02-03T07:19:58.341Z,10.50
2023-02-03T07:22:24.941Z,10.60
2023-02-03T07:24:51.525Z,10.60
2023-02-03T07:27:19.194Z,10.60
2023-02-03T07:29:45.899Z,10.50
2023-02-03T07:32:12.710Z,10.60
2023-02-03T07:34:39.383Z,10.60
2023-02-03T07:37:06.048Z,10.60
2023-02-03T07:39:33.070Z,10.60
2023-02-03T07:41:59.686Z,10.60
2023-02-03T07:44:26.272Z,10.50
2023-02-03T07:46:52.913Z,10.60
2023-02-03T07:49:19.520Z,10.60
2023-02-03T07:51:46.100Z,10.50
2023-02-03T07:54:12.743Z,10.60
2023-02-03T07:56:39.326Z,10.60
2023-02-03T07:59:05.893Z,10.60
2023-02-03T08:01:34.049Z,10.60
2023-02-03T08:04:02.047Z,10.60
2023-02-03T08:06:30.481Z,10.70
2023-02-03T08:08:57.083Z,10.70
2023-02-03T08:11:23.688Z,10.70
2023-02-03T08:13:50.349Z,10.60
2023-02-03T08:16:17.119Z,10.70
2023-02-03T08:18:43.734Z,10.70
2023-02-03T08:21:10.899Z,10.70
2023-02-03T08:23:37.533Z,10.70
2023-02-03T08:26:05.195Z,10.70
2023-02-03T08:28:31.869Z,10.70
2023-02-03T08:30:58.600Z,10.70
2023-02-03T08:33:25.394Z,10.70
2023-02-03T08:35:52.044Z,10.70
2023-02-03T08:38:18.699Z,10.70
2023-02-03T08:40:45.425Z,10.80
2023-02-03T08:43:12.008Z,10.80
2023-02-03T08:45:40.407Z,10.80
2023-02-03T08:48:07.499Z,10.80
2023-02-03T08:50:34.265Z,10.80
2023-02-03T08:53:00.925Z,10.70
2023-02-03T08:55:27.590Z,10.80
2023-02-03T08:57:54.249Z,10.90
2023-02-03T09:00:21.280Z,10.90
2023-02-03T09:02:47.862Z,10.80
2023-02-03T09:05:15.907Z,10.90
2023-02-03T09:07:42.632Z,11.00
2023-02-03T09:10:09.994Z,11.00
2023-02-03T09:12:36.637Z,11.10
2023-02-03T09:15:03.534Z,11.10
2023-02-03T09:17:30.177Z,11.20
2023-02-03T09:19:56.948Z,11.10
2023-02-03T09:22:23.628Z,11.10
2023-02-03T09:24:51.275Z,11.10
2023-02-03T09:27:17.999Z,11.20
2023-02-03T09:29:44.667Z,11.30
2023-02-03T09:32:13.161Z,11.30
2023-02-03T09:34:41.345Z,11.40
2023-02-03T09:37:08.992Z,11.30
2023-02-03T09:39:35.690Z,11.30
2023-02-03T09:42:33.902Z,11.30
2023-02-03T09:45:26.293Z,11.30
2023-02-03T09:47:55.470Z,11.30
2023-02-03T09:50:26.431Z,11.30
2023-02-03T09:52:54.234Z,11.40
2023-02-03T09:55:40.852Z,11.40
2023-02-03T09:58:14.265Z,11.40
2023-02-03T10:00:58.975Z,11.40
2023-02-03T10:03:43.119Z,11.40
2023-02-03T10:06:33.354Z,11.40
2023-02-03T10:09:09.487Z,11.40
2023-02-03T10:12:02.661Z,11.30
2023-02-03T10:14:34.656Z,11.40
2023-02-03T10:17:22.171Z,11.40
2023-02-03T10:19:51.573Z,11.40
2023-02-03T10:22:27.277Z,11.40
2023-02-03T10:25:05.252Z,11.40
2023-02-03T10:27:34.141Z,11.40
2023-02-03T10:30:23.801Z,11.30
2023-02-03T10:33:08.878Z,11.30
2023-02-03T10:36:02.780Z,11.30
2023-02-03T10:38:51.211Z,11.40
2023-02-03T10:41:19.842Z,11.50
2023-02-03T10:43:47.435Z,11.50
2023-02-03T10:46:31.658Z,11.40
2023-02-03T10:48:58.570Z,11.40
2023-02-03T10:51:26.735Z,11.50
2023-02-03T10:53:53.860Z,11.50
2023-02-03T10:56:26.186Z,11.60
2023-02-03T10:58:58.974Z,11.50
2023-02-03T11:01:28.795Z,11.60
2023-02-03T11:04:03.786Z,11.60
2023-02-03T11:06:32.651Z,11.60
2023-02-03T11:08:59.804Z,11.60
2023-02-03T11:11:32.486Z,11.60
2023-02-03T11:14:05.373Z,11.60
2023-02-03T11:16:38.433Z,11.60
2023-02-03T11:19:13.526Z,11.50
2023-02-03T11:21:42.806Z,11.60
2023-02-03T11:24:21.504Z,11.60
2023-02-03T11:27:09.986Z,11.60
2023-02-03T11:29:54.792Z,11.50
2023-02-03T11:32:32.104Z,11.50
2023-02-03T11:35:00.259Z,11.60
2023-02-03T11:37:27.197Z,11.60
2023-02-03T11:40:18.210Z,11.60
2023-02-03T11:42:59.386Z,11.60
2023-02-03T11:45:35.768Z,11.60
2023-02-03T11:48:32.182Z,11.60
2023-02-03T11:51:13.012Z,11.60
2023-02-03T11:54:10.578Z,11.70
2023-02-03T11:56:43.181Z,11.60
2023-02-03T11:59:33.909Z,11.60
2023-02-03T12:02:42.402Z,11.50
2023-02-03T12:05:18.241Z,11.60
2023-02-03T12:07:58.843Z,11.60
2023-02-03T12:10:40.818Z,11.70
2023-02-03T12:13:19.779Z,11.60
2023-02-03T12:16:07.516Z,11.50
2023-02-03T12:18:54.825Z,11.40
2023-02-03T12:21:27.046Z,11.30
2023-02-03T12:24:19.734Z,11.30
2023-02-03T12:27:17.369Z,11.30
2023-02-03T12:29:49.783Z,11.40
2023-02-03T12:32:38.027Z,11.30
2023-02-03T12:35:30.591Z,11.30
2023-02-03T12:38:22.115Z,11.30
2023-02-03T12:41:01.029Z,11.30
2023-02-03T12:43:37.530Z,11.30
2023-02-03T12:46:13.195Z,11.20
2023-02-03T12:48:52.638Z,11.20
2023-02-03T12:51:38.455Z,11.20
2023-02-03T12:54:30.476Z,11.10
2023-02-03T12:57:00.955Z,11.00
2023-02-03T12:59:31.703Z,11.00
2023-02-03T13:02:03.061Z,11.00
2023-02-03T13:04:57.907Z,11.10
2023-02-03T13:07:35.926Z,11.10
2023-02-03T13:10:12.679Z,11.10
2023-02-03T13:12:46.772Z,11.10
2023-02-03T13:15:24.840Z,11.10
2023-02-03T13:18:05.252Z,11.10
2023-02-03T13:20:36.091Z,11.00
2023-02-03T13:23:13.724Z,11.00
2023-02-03T13:26:02.033Z,11.10
2023-02-03T13:28:53.768Z,11.10
2023-02-03T13:31:38.614Z,11.10
2023-02-03T13:34:24.777Z,11.10
2023-02-03T13:37:14.360Z,11.10
2023-02-03T13:39:43.794Z,11.10
2023-02-03T13:42:16.298Z,11.20
2023-02-03T13:44:46.952Z,11.20
2023-02-03T13:47:21.671Z,11.10
2023-02-03T13:50:02.765Z,11.20
2023-02-03T13:52:44.374Z,11.20
2023-02-03T13:55:31.093Z,11.20
2023-02-03T13:57:58.371Z,11.20
2023-02-03T14:00:43.658Z,11.20
2023-02-03T14:03:25.662Z,11.20
2023-02-03T14:05:54.563Z,11.20
2023-02-03T14:08:43.267Z,11.30
2023-02-03T14:11:49.222Z,11.20
2023-02-03T14:14:15.768Z,11.20
2023-02-03T14:16:52.049Z,11.30
2023-02-03T14:19:30.266Z,11.30
2023-02-03T14:22:08.061Z,11.20
2023-02-03T14:24:41.381Z,11.30
2023-02-03T14:27:26.298Z,11.30
2023-02-03T14:30:14.523Z,11.30
2023-02-03T14:32:55.269Z,11.30
2023-02-03T14:35:29.237Z,11.30
2023-02-03T14:38:00.417Z,11.30
2023-02-03T14:40:44.928Z,11.30
2023-02-03T14:43:39.575Z,11.30
2023-02-03T14:46:06.303Z,11.30
2023-02-03T14:48:51.924Z,11.40
2023-02-03T14:51:24.325Z,11.30
2023-02-03T14:53:59.762Z,11.20
2023-02-03T14:57:03.992Z,11.20
2023-02-03T14:59:40.416Z,11.30
2023-02-03T15:02:09.587Z,11.30
2023-02-03T15:04:36.285Z,11.30
2023-02-03T15:07:03.006Z,11.30
2023-02-03T15:09:46.019Z,11.20
2023-02-03T15:12:19.946Z,11.10
2023-02-03T15:14:46.597Z,11.10
2023-02-03T15:17:27.572Z,11.10
2023-02-03T15:19:54.760Z,11.10
2023-02-03T15:22:25.458Z,11.20
2023-02-03T15:24:59.441Z,11.10
2023-02-03T15:27:31.132Z,11.10
2023-02-03T15:30:01.975Z,11.10
2023-02-03T15:32:29.262Z,11.10
2023-02-03T15:34:58.541Z,11.00
2023-02-03T15:37:31.212Z,11.00
2023-02-03T15:40:13.996Z,11.00
2023-02-03T15:42:57.212Z,11.00
2023-02-03T15:45:36.056Z,10.90
2023-02-03T15:48:15.362Z,10.80
2023-02-03T15:50:53.638Z,10.70
2023-02-03T15:53:50.482Z,10.80
2023-02-03T15:56:45.463Z,10.80
2023-02-03T15:59:22.948Z,10.70
2023-02-03T16:01:50.109Z,10.70
2023-02-03T16:04:16.803Z,10.70
2023-02-03T16:06:48.625Z,10.80
2023-02-03T16:09:27.008Z,10.70
2023-02-03T16:12:18.332Z,10.70
2023-02-03T16:14:45.449Z,10.60
2023-02-03T16:17:30.508Z,10.60
2023-02-03T16:20:22.214Z,10.60
2023-02-03T16:23:20.524Z,10.70
2023-02-03T16:26:26.903Z,10.70
2023-02-03T16:29:26.769Z,10.50
2023-02-03T16:32:13.288Z,10.50
2023-02-03T16:34:58.674Z,10.50
2023-02-03T16:37:45.765Z,10.40
2023-02-03T16:40:32.804Z,10.50
2023-02-03T16:43:18.267Z,10.40
2023-02-03T16:46:03.707Z,10.40
2023-02-03T16:48:49.145Z,10.50
2023-02-03T16:51:17.329Z,10.40
2023-02-03T16:53:45.815Z,10.40
2023-02-03T16:56:13.657Z,10.40
2023-02-03T16:58:40.548Z,10.50
2023-02-03T17:01:09.486Z,10.50
2023-02-03T17:03:38.172Z,10.50
2023-02-03T17:06:07.871Z,10.50
2023-02-03T17:08:35.617Z,10.50
2023-02-03T17:11:07.419Z,10.50
2023-02-03T17:13:34.492Z,10.50
2023-02-03T17:16:01.273Z,10.50
2023-02-03T17:18:28.011Z,10.50
2023-02-03T17:20:54.701Z,10.40
2023-02-03T17:23:21.443Z,10.40
2023-02-03T17:25:50.343Z,10.40
2023-02-03T17:28:17.447Z,10.40
2023-02-03T17:30:44.276Z,10.40
2023-02-03T17:33:14.496Z,10.30
2023-02-03T17:35:42.745Z,10.40
2023-02-03T17:38:10.520Z,10.40
2023-02-03T17:54:24.646Z,10.30
2023-02-03T17:56:51.296Z,10.30
2023-02-03T17:59:17.932Z,10.20
2023-02-03T18:01:46.687Z,10.20
2023-02-03T18:04:13.451Z,10.20
2023-02-03T18:06:40.170Z,10.20
2023-02-03T18:09:09.994Z,10.10
2023-02-03T18:11:37.861Z,10.10
2023-02-03T18:14:05.390Z,10.10
2023-02-03T18:16:35.502Z,10.20
2023-02-03T18:19:05.512Z,10.20
2023-02-03T18:21:32.394Z,10.20
2023-02-03T18:24:01.741Z,10.20
2023-02-03T18:26:34.281Z,10.20
2023-02-03T18:29:01.540Z,10.20
2023-02-03T18:31:28.629Z,10.20
2023-02-03T18:33:55.542Z,10.30
2023-02-03T18:36:22.224Z,10.30
2023-02-03T18:38:49.082Z,10.20
2023-02-03T18:41:24.841Z,10.30
2023-02-03T18:43:51.790Z,10.30
2023-02-03T18:46:29.844Z,10.30
2023-02-03T18:48:57.152Z,10.30
2023-02-03T18:51:25.198Z,10.30
2023-02-03T18:53:52.297Z,10.30
2023-02-03T18:56:25.148Z,10.30
2023-02-03T18:58:52.389Z,10.40
2023-02-03T19:01:28.066Z,10.40
2023-02-03T19:04:00.158Z,10.30
2023-02-03T19:06:29.949Z,10.30
2023-02-03T19:08:57.356Z,10.30
2023-02-03T19:11:24.214Z,10.40
2023-02-03T19:13:50.968Z,10.30
2023-02-03T19:16:17.955Z,10.40
2023-02-03T19:18:45.764Z,10.30
2023-02-03T19:21:13.104Z,10.30
2023-02-03T19:23:41.020Z,10.30
2023-02-03T19:26:09.672Z,10.30
2023-02-03T19:28:36.706Z,10.30
2023-02-03T19:31:08.974Z,10.40
2023-02-03T19:33:36.918Z,10.30
2023-02-03T19:36:07.424Z,10.30
2023-02-03T19:38:34.466Z,10.30
2023-02-03T19:41:02.084Z,10.30
2023-02-03T19:43:32.029Z,10.30
2023-02-03T19:45:58.933Z,10.30
2023-02-03T19:48:25.805Z,10.30
2023-02-03T19:50:52.447Z,10.20
2023-02-03T19:53:19.401Z,10.30
2023-02-03T19:55:46.926Z,10.30
2023-02-03T19:58:14.263Z,10.30
2023-02-03T20:00:41.967Z,10.30
2023-02-03T20:03:09.082Z,10.30
2023-02-03T20:05:36.275Z,10.30
2023-02-03T20:08:03.826Z,10.20
2023-02-03T20:10:32.368Z,10.20
2023-02-03T20:12:59.453Z,10.20
2023-02-03T20:15:26.850Z,10.30
2023-02-03T20:17:53.814Z,10.30
2023-02-03T20:20:21.011Z,10.30
2023-02-03T20:22:48.539Z,10.30
2023-02-03T20:25:15.417Z,10.10
2023-02-03T20:27:42.198Z,10.10
2023-02-03T20:30:09.588Z,10.10
2023-02-03T20:32:36.438Z,10.10
2023-02-03T20:35:04.766Z,10.20
2023-02-03T20:37:32.077Z,10.30
2023-02-03T20:39:58.707Z,10.20
2023-02-03T20:42:25.357Z,10.30
2023-02-03T20:44:51.956Z,10.30
2023-02-03T20:47:19.077Z,10.30
2023-02-03T20:49:47.779Z,10.20
2023-02-03T20:52:16.716Z,10.20
2023-02-03T20:54:43.448Z,10.20
2023-02-03T20:57:15.380Z,10.20
2023-02-03T20:59:44.320Z,10.20
2023-02-03T21:02:33.515Z,10.20
2023-02-03T21:05:06.233Z,10.20
2023-02-03T21:07:32.952Z,10.30
2023-02-03T21:10:00.277Z,10.30
2023-02-03T21:12:29.838Z,10.30
2023-02-03T21:14:57.090Z,10.30
2023-02-03T21:17:26.177Z,10.30
2023-02-03T21:19:54.491Z,10.30
2023-02-03T21:22:26.682Z,10.30
2023-02-03T21:24:57.213Z,10.30
2023-02-03T21:27:31.221Z,10.30
2023-02-03T21:29:59.525Z,10.30
2023-02-03T21:32:40.193Z,10.30
2023-02-03T21:35:26.209Z,10.20
2023-02-03T21:37:57.052Z,10.20
2023-02-03T21:40:27.434Z,10.20
2023-02-03T21:42:55.341Z,10.20
2023-02-03T21:45:28.551Z,10.20
2023-02-03T21:47:58.017Z,10.20
2023-02-03T21:50:35.767Z,10.20
2023-02-03T21:53:05.517Z,10.10
2023-02-03T21:55:32.093Z,10.00
2023-02-03T21:57:58.887Z,10.00
2023-02-03T22:00:47.831Z,10.00
2023-02-03T22:03:21.939Z,10.00
2023-02-03T22:05:48.895Z,10.00
2023-02-03T22:08:22.945Z,10.00
2023-02-03T22:10:50.073Z,10.00
2023-02-03T22:13:16.716Z,9.90
2023-02-03T22:15:45.889Z,10.00
2023-02-03T22:18:12.504Z,9.90
2023-02-03T22:20:39.143Z,9.90
2023-02-03T22:23:05.934Z,10.00
2023-02-03T22:25:32.645Z,10.00
2023-02-03T22:27:59.356Z,10.00
2023-02-03T22:30:26.028Z,10.00
2023-02-03T22:32:52.680Z,9.90
2023-02-03T22:35:19.274Z,9.90
2023-02-03T22:37:45.909Z,10.00
2023-02-03T22:40:13.034Z,10.00
2023-02-03T22:42:40.064Z,9.90
2023-02-03T22:45:07.442Z,10.00
2023-02-03T22:47:34.048Z,10.00
2023-02-03T22:50:00.641Z,9.90
2023-02-03T22:52:27.228Z,9.90
2023-02-03T22:54:53.886Z,9.90
2023-02-03T22:57:20.554Z,10.00
2023-02-03T22:59:47.248Z,10.00
2023-02-03T23:02:13.898Z,10.00
2023-02-03T23:04:40.564Z,10.00
2023-02-03T23:07:07.157Z,10.10
2023-02-03T23:09:33.789Z,10.10
2023-02-03T23:12:00.727Z,10.10
2023-02-03T23:14:27.956Z,10.20
2023-02-03T23:16:54.638Z,10.20
2023-02-03T23:19:21.264Z,10.10
2023-02-03T23:21:47.931Z,10.00
2023-02-03T23:24:14.584Z,10.10
2023-02-03T23:26:41.232Z,10.10
2023-02-03T23:29:08.066Z,10.10
2023-02-03T23:31:34.878Z,10.10
2023-02-03T23:34:20.085Z,10.00
2023-02-03T23:36:46.716Z,10.00
2023-02-03T23:39:13.491Z,10.00
2023-02-03T23:41:40.169Z,10.00
2023-02-03T23:44:06.807Z,10.00
2023-02-03T23:46:33.448Z,10.00
2023-02-03T23:49:00.126Z,10.00
2023-02-03T23:51:26.761Z,10.00
2023-02-03T23:53:53.383Z,10.00
2023-02-03T23:56:20.033Z,10.00
2023-02-03T23:58:46.683Z,10.00
